Stonehaven, United Kingdom
Current Conditions -  °F | °C
As of 1:50 PM on Friday 24 Oct 2014 (Local Time) from EGPD Reporting Station
Few Clouds Few Clouds  
Wind Chill: 52°   Ceiling: Unl
Heat Index: 52°   Visibility: 6mi
Dew Point: 43°   Wind: 5mph
Humidity: 71%   Direction: 260°W
Pressure: 29.68"   Gusts: NA
Location:  56.96°N, 2.21°W
Report Text: EGPD 241250Z 26004KT 200V340 9999 FEW037 11/06 Q1005 NOSIG
Loading
Personal Weather Stations






























Interactive Weather Map
Tropical Storm Tracking
New forecast layout! Learn more

10-Day Weather Forecast

Advertisements
Track Severe Weather on mobile